createdAt,value
2019-03-12T00:00:38.780Z,26.4
2019-03-12T00:01:28.582Z,26.3
2019-03-12T00:02:18.310Z,26.2
2019-03-12T00:03:08.137Z,26.1
2019-03-12T00:03:57.949Z,26
2019-03-12T00:04:48.541Z,25.9
2019-03-12T00:05:38.066Z,25.8
2019-03-12T00:06:28.443Z,25.8
2019-03-12T00:07:19.007Z,25.6
2019-03-12T00:08:08.221Z,25.6
2019-03-12T00:08:58.649Z,25.4
2019-03-12T00:09:48.656Z,25.4
2019-03-12T00:10:38.682Z,25.3
2019-03-12T00:11:29.284Z,25.2
2019-03-12T00:12:19.150Z,25.1
2019-03-12T00:13:08.849Z,25.1
2019-03-12T00:13:59.476Z,25.1
2019-03-12T00:14:49.507Z,25
2019-03-12T00:15:39.574Z,25
2019-03-12T00:16:29.204Z,24.9
2019-03-12T00:17:18.861Z,24.9
2019-03-12T00:18:09.315Z,24.9
2019-03-12T00:18:58.464Z,24.8
2019-03-12T00:19:48.769Z,24.8
2019-03-12T00:20:38.833Z,24.8
2019-03-12T00:21:30.292Z,24.7
2019-03-12T00:22:18.964Z,24.6
2019-03-12T00:23:09.643Z,24.6
2019-03-12T00:23:59.926Z,24.6
2019-03-12T00:24:49.698Z,24.5
2019-03-12T00:25:40.347Z,24.4
2019-03-12T00:26:30.113Z,24.6
2019-03-12T00:27:19.891Z,24.7
2019-03-12T00:28:10.204Z,24.8
2019-03-12T00:29:00.011Z,24.8
2019-03-12T00:29:50.705Z,24.9
2019-03-12T00:30:39.933Z,25
2019-03-12T00:31:30.278Z,25
2019-03-12T00:32:20.518Z,25.1
2019-03-12T00:33:11.227Z,25.2
2019-03-12T00:34:00.640Z,25.3
2019-03-12T00:34:50.967Z,25.4
2019-03-12T00:35:40.550Z,25.6
2019-03-12T00:36:30.804Z,25.6
2019-03-12T00:37:20.628Z,25.6
2019-03-12T00:38:10.375Z,25.6
2019-03-12T00:39:01.260Z,25.7
2019-03-12T00:39:51.346Z,25.7
2019-03-12T00:40:41.220Z,25.6
2019-03-12T00:41:31.782Z,25.6
2019-03-12T00:42:20.685Z,25.6
2019-03-12T00:43:11.012Z,25.6
2019-03-12T00:44:00.907Z,25.6
2019-03-12T00:44:51.257Z,25.5
2019-03-12T00:45:41.822Z,25.5
2019-03-12T00:46:34.570Z,25.5
2019-03-12T00:47:21.332Z,25.6
2019-03-12T00:48:11.378Z,25.6
2019-03-12T00:49:01.480Z,25.8
2019-03-12T00:49:51.772Z,25.8
2019-03-12T00:50:42.115Z,25.9
2019-03-12T00:51:31.641Z,26.1
2019-03-12T00:52:21.948Z,26.1
2019-03-12T00:53:12.044Z,26.3
2019-03-12T00:54:01.551Z,26.3
2019-03-12T00:54:51.582Z,26.4
2019-03-12T00:55:42.224Z,26.4
2019-03-12T00:56:31.736Z,26.4
2019-03-12T00:57:22.043Z,26.4
2019-03-12T00:58:12.427Z,26.4
2019-03-12T00:59:01.602Z,26.3
2019-03-12T00:59:52.354Z,26.2
2019-03-12T01:00:41.754Z,26.1
2019-03-12T01:01:32.643Z,26
2019-03-12T01:02:22.965Z,25.9
2019-03-12T01:03:12.557Z,25.8
2019-03-12T01:04:03.375Z,25.7
2019-03-12T01:04:52.629Z,25.6
2019-03-12T01:05:42.669Z,25.5
2019-03-12T01:06:33.287Z,25.4
2019-03-12T01:07:23.390Z,25.3
2019-03-12T01:08:12.839Z,25.3
2019-03-12T01:09:03.536Z,25.2
2019-03-12T01:09:52.676Z,25.1
2019-03-12T01:10:43.916Z,25.1
2019-03-12T01:11:33.356Z,25.1
2019-03-12T01:12:23.221Z,25
2019-03-12T01:13:13.011Z,24.9
2019-03-12T01:14:03.848Z,25
2019-03-12T01:14:53.311Z,24.9
2019-03-12T01:15:43.993Z,24.9
2019-03-12T01:16:33.128Z,24.8
2019-03-12T01:17:24.043Z,24.8
2019-03-12T01:18:16.571Z,24.7
2019-03-12T01:19:04.286Z,24.6
2019-03-12T01:19:54.524Z,24.6
2019-03-12T01:20:43.546Z,24.6
2019-03-12T01:21:34.109Z,24.6
2019-03-12T01:22:24.230Z,24.5
2019-03-12T01:23:13.644Z,24.6
2019-03-12T01:24:04.428Z,24.7
2019-03-12T01:24:54.623Z,24.8
2019-03-12T01:25:43.756Z,24.8
2019-03-12T01:26:33.630Z,24.9
2019-03-12T01:27:24.813Z,24.9
2019-03-12T01:28:15.128Z,25
2019-03-12T01:29:04.617Z,25.1
2019-03-12T01:29:54.990Z,25.2
2019-03-12T01:30:44.779Z,25.3
2019-03-12T01:31:35.075Z,25.4
2019-03-12T01:32:25.190Z,25.5
2019-03-12T01:33:14.365Z,25.6
2019-03-12T01:34:04.768Z,25.7
2019-03-12T01:34:54.209Z,25.8
2019-03-12T01:35:45.143Z,25.9
2019-03-12T01:36:35.434Z,26
2019-03-12T01:37:25.344Z,26.1
2019-03-12T01:38:15.579Z,26.2
2019-03-12T01:39:04.245Z,26.3
2019-03-12T01:39:55.392Z,26.4
2019-03-12T01:40:45.449Z,26.4
2019-03-12T01:41:34.142Z,26.5
2019-03-12T01:42:25.742Z,26.5
2019-03-12T01:43:15.417Z,26.4
2019-03-12T01:44:05.722Z,26.4
2019-03-12T01:44:55.517Z,26.3
2019-03-12T01:45:46.121Z,26.2
2019-03-12T01:46:35.677Z,26.1
2019-03-12T01:47:26.349Z,26
2019-03-12T01:48:16.024Z,25.9
2019-03-12T01:49:04.717Z,25.8
2019-03-12T01:49:56.124Z,25.7
2019-03-12T01:50:46.771Z,25.6
2019-03-12T01:51:38.172Z,25.5
2019-03-12T01:52:26.349Z,25.4
2019-03-12T01:53:16.129Z,25.3
2019-03-12T01:54:06.474Z,25.3
2019-03-12T01:54:56.286Z,25.2
2019-03-12T01:55:46.883Z,25.2
2019-03-12T01:56:36.386Z,25.1
2019-03-12T01:57:27.047Z,25.1
2019-03-12T01:58:20.501Z,25
2019-03-12T01:59:05.988Z,25
2019-03-12T01:59:56.916Z,25
2019-03-12T02:00:46.411Z,24.9
2019-03-12T02:01:36.727Z,24.9
2019-03-12T02:02:26.765Z,24.8
2019-03-12T02:03:17.526Z,24.8
2019-03-12T02:04:06.983Z,24.7
2019-03-12T02:04:56.402Z,24.6
2019-03-12T02:05:47.290Z,24.6
2019-03-12T02:06:37.377Z,24.6
2019-03-12T02:07:28.032Z,24.6
2019-03-12T02:08:17.209Z,24.5
2019-03-12T02:09:08.149Z,24.5
2019-03-12T02:09:57.885Z,24.7
2019-03-12T02:10:47.738Z,24.7
2019-03-12T02:11:37.743Z,24.8
2019-03-12T02:12:27.219Z,24.9
2019-03-12T02:13:18.102Z,24.9
2019-03-12T02:14:07.895Z,25
2019-03-12T02:14:57.992Z,25.1
2019-03-12T02:15:48.025Z,25.2
2019-03-12T02:16:41.105Z,25.3
2019-03-12T02:17:27.635Z,25.4
2019-03-12T02:18:18.188Z,25.4
2019-03-12T02:19:08.590Z,25.6
2019-03-12T02:19:57.870Z,25.7
2019-03-12T02:20:48.647Z,25.8
2019-03-12T02:21:38.445Z,25.9
2019-03-12T02:22:28.242Z,26
2019-03-12T02:23:17.457Z,26.1
2019-03-12T02:24:08.389Z,26.2
2019-03-12T02:25:00.422Z,26.3
2019-03-12T02:25:48.732Z,26.4
2019-03-12T02:26:38.539Z,26.4
2019-03-12T02:27:28.865Z,26.4
2019-03-12T02:28:18.912Z,26.4
2019-03-12T02:29:09.558Z,26.4
2019-03-12T02:29:58.589Z,26.4
2019-03-12T02:30:49.315Z,26.3
2019-03-12T02:31:39.239Z,26.2
2019-03-12T02:32:28.730Z,26.1
2019-03-12T02:33:17.947Z,25.9
2019-03-12T02:34:10.022Z,25.9
2019-03-12T02:34:59.537Z,25.8
2019-03-12T02:35:49.525Z,25.6
2019-03-12T02:36:38.558Z,25.6
2019-03-12T02:37:29.804Z,25.5
2019-03-12T02:38:20.044Z,25.4
2019-03-12T02:39:09.486Z,25.3
2019-03-12T02:39:59.867Z,25.3
2019-03-12T02:40:49.106Z,25.2
2019-03-12T02:41:40.064Z,25.1
2019-03-12T02:42:29.761Z,25.1
2019-03-12T02:43:20.542Z,25.1
2019-03-12T02:44:09.702Z,25
2019-03-12T02:45:01.056Z,24.9
2019-03-12T02:45:50.088Z,24.9
2019-03-12T02:46:40.878Z,24.9
2019-03-12T02:47:30.514Z,24.8
2019-03-12T02:48:20.482Z,24.8
2019-03-12T02:49:16.371Z,24.8
2019-03-12T02:50:00.098Z,24.7
2019-03-12T02:50:49.525Z,24.7
2019-03-12T02:51:40.430Z,24.6
2019-03-12T02:52:31.149Z,24.6
2019-03-12T02:53:20.603Z,24.5
2019-03-12T02:54:10.507Z,24.5
2019-03-12T02:55:01.079Z,24.6
2019-03-12T02:55:51.046Z,24.7
2019-03-12T02:56:39.958Z,24.8
2019-03-12T02:57:31.418Z,24.8
2019-03-12T02:58:21.188Z,24.9
2019-03-12T02:59:11.621Z,24.9
2019-03-12T03:00:01.098Z,25
2019-03-12T03:00:50.820Z,25.1
2019-03-12T03:01:41.306Z,25.2
2019-03-12T03:02:31.420Z,25.3
2019-03-12T03:03:21.563Z,25.4
2019-03-12T03:04:12.161Z,25.5
2019-03-12T03:07:41.201Z,25.9
2019-03-12T03:08:32.997Z,26
2019-03-12T03:09:22.494Z,26.1
2019-03-12T03:10:12.405Z,26.2
2019-03-12T03:11:02.311Z,26.3
2019-03-12T03:11:56.125Z,26.3
2019-03-12T03:12:42.629Z,26.4
2019-03-12T03:13:32.573Z,26.5
2019-03-12T03:14:22.694Z,26.6
2019-03-12T03:15:12.800Z,26.6
2019-03-12T03:16:03.571Z,26.6
2019-03-12T03:16:52.670Z,26.5
2019-03-12T03:17:43.306Z,26.4
2019-03-12T03:18:33.194Z,26.4
2019-03-12T03:19:22.817Z,26.3
2019-03-12T03:20:13.004Z,26.3
2019-03-12T03:21:03.125Z,26.2
2019-03-12T03:21:52.234Z,26.1
2019-03-12T03:22:43.515Z,26.1
2019-03-12T03:23:33.563Z,25.9
2019-03-12T03:24:23.635Z,25.9
2019-03-12T03:25:13.632Z,25.9
2019-03-12T03:26:03.227Z,25.9
2019-03-12T03:26:53.346Z,26
2019-03-12T03:27:43.460Z,26
2019-03-12T03:28:33.931Z,26.1
2019-03-12T03:29:23.591Z,26.2
2019-03-12T03:30:14.079Z,26.3
2019-03-12T03:31:04.852Z,26.4
2019-03-12T03:31:53.429Z,26.5
2019-03-12T03:32:44.168Z,26.5
2019-03-12T03:33:34.349Z,26.6
2019-03-12T03:34:34.160Z,26.6
2019-03-12T03:35:14.241Z,26.6
2019-03-12T03:36:04.811Z,26.6
2019-03-12T03:36:54.660Z,26.5
2019-03-12T03:37:44.426Z,26.4
2019-03-12T03:38:34.483Z,26.3
2019-03-12T03:39:24.568Z,26.1
2019-03-12T03:40:14.653Z,26.1
2019-03-12T03:41:04.598Z,26
2019-03-12T03:41:54.559Z,25.9
2019-03-12T03:42:44.676Z,25.8
2019-03-12T03:43:35.515Z,25.7
2019-03-12T03:44:25.081Z,25.6
2019-03-12T03:45:15.360Z,25.5
2019-03-12T03:46:05.423Z,25.4
2019-03-12T03:46:55.126Z,25.4
2019-03-12T03:47:45.255Z,25.3
2019-03-12T03:48:35.492Z,25.3
2019-03-12T03:49:25.738Z,25.2
2019-03-12T03:50:15.730Z,25.1
2019-03-12T03:51:05.541Z,25.1
2019-03-12T03:51:55.761Z,25.1
2019-03-12T03:52:45.704Z,25.1
2019-03-12T03:53:35.452Z,25
2019-03-12T03:54:25.578Z,24.9
2019-03-12T03:55:15.061Z,24.9
2019-03-12T03:56:06.470Z,24.8
2019-03-12T03:56:56.145Z,24.8
2019-03-12T03:57:46.034Z,24.8
2019-03-12T03:58:35.176Z,24.7
2019-03-12T03:59:26.171Z,24.7
2019-03-12T04:00:16.059Z,24.6
2019-03-12T04:01:05.889Z,24.6
2019-03-12T04:01:55.959Z,24.7
2019-03-12T04:02:46.911Z,24.8
2019-03-12T04:03:36.767Z,24.9
2019-03-12T04:04:27.129Z,24.9
2019-03-12T04:05:16.812Z,25
2019-03-12T04:06:06.479Z,25.1
2019-03-12T04:06:56.360Z,25.1
2019-03-12T04:07:46.200Z,25.2
2019-03-12T04:08:36.482Z,25.3
2019-03-12T04:09:26.509Z,25.4
2019-03-12T04:10:17.026Z,25.5
2019-03-12T04:11:06.929Z,25.6
2019-03-12T04:11:56.638Z,25.7
2019-03-12T04:12:46.639Z,25.8
2019-03-12T04:13:37.482Z,25.9
2019-03-12T04:14:26.834Z,26.1
2019-03-12T04:15:17.042Z,26.1
2019-03-12T04:16:08.108Z,26.2
2019-03-12T04:16:57.599Z,26.3
2019-03-12T04:17:47.389Z,26.4
2019-03-12T04:18:37.801Z,26.4
2019-03-12T04:19:27.640Z,26.5
2019-03-12T04:20:17.020Z,26.5
2019-03-12T04:21:07.716Z,26.4
2019-03-12T04:21:57.939Z,26.4
2019-03-12T04:22:47.859Z,26.3
2019-03-12T04:23:37.674Z,26.2
2019-03-12T04:24:27.840Z,26.1
2019-03-12T04:25:32.217Z,26
2019-03-12T04:26:08.329Z,25.9
2019-03-12T04:26:57.784Z,25.8
2019-03-12T04:27:48.294Z,25.7
2019-03-12T04:28:38.488Z,25.6
2019-03-12T04:29:28.760Z,25.5
2019-03-12T04:30:17.891Z,25.4
2019-03-12T04:31:08.959Z,25.3
2019-03-12T04:31:58.973Z,25.3
2019-03-12T04:32:48.375Z,25.3
2019-03-12T04:33:38.553Z,25.2
2019-03-12T04:34:28.650Z,25.1
2019-03-12T04:35:18.803Z,25.1
2019-03-12T04:36:08.404Z,25
2019-03-12T04:36:59.165Z,25
2019-03-12T04:37:48.798Z,25
2019-03-12T04:38:38.862Z,24.9
2019-03-12T04:39:28.560Z,24.9
2019-03-12T04:40:18.773Z,24.8
2019-03-12T04:41:09.017Z,24.8
2019-03-12T04:41:58.464Z,24.7
2019-03-12T04:42:48.669Z,24.7
2019-03-12T04:43:39.206Z,24.6
2019-03-12T04:44:29.329Z,24.6
2019-03-12T04:45:19.384Z,24.6
2019-03-12T04:46:09.651Z,24.5
2019-03-12T04:46:59.259Z,24.5
2019-03-12T04:47:49.038Z,24.7
2019-03-12T04:48:39.759Z,24.8
2019-03-12T04:49:29.608Z,24.8
2019-03-12T04:50:19.168Z,24.9
2019-03-12T04:51:09.388Z,24.9
2019-03-12T04:52:00.176Z,25
2019-03-12T04:52:49.576Z,25.1
2019-03-12T04:53:43.691Z,25.1
2019-03-12T04:54:30.021Z,25.3
2019-03-12T04:55:19.326Z,25.4
2019-03-12T04:56:10.333Z,25.5
2019-03-12T04:57:00.391Z,25.6
2019-03-12T04:57:50.292Z,25.7
2019-03-12T04:58:40.490Z,25.8
2019-03-12T04:59:30.064Z,25.9
2019-03-12T05:00:20.385Z,26
2019-03-12T05:01:10.057Z,26.1
2019-03-12T05:02:00.588Z,26.2
2019-03-12T05:02:50.251Z,26.3
2019-03-12T05:03:40.033Z,26.3
2019-03-12T05:04:30.683Z,26.4
2019-03-12T05:05:20.810Z,26.4
2019-03-12T05:06:10.772Z,26.4
2019-03-12T05:07:00.548Z,26.4
2019-03-12T05:07:50.891Z,26.3
2019-03-12T05:08:40.671Z,26.1
2019-03-12T05:09:30.858Z,26
2019-03-12T05:10:21.475Z,25.9
2019-03-12T05:11:11.235Z,25.8
2019-03-12T05:12:00.972Z,25.7
2019-03-12T05:12:51.281Z,25.6
2019-03-12T05:13:40.830Z,25.4
2019-03-12T05:14:31.118Z,25.4
2019-03-12T05:15:21.555Z,25.3
2019-03-12T05:16:11.215Z,25.2
2019-03-12T05:17:00.820Z,25.1
2019-03-12T05:17:51.200Z,25
2019-03-12T05:18:41.665Z,24.9
2019-03-12T05:19:31.513Z,24.9
2019-03-12T05:20:22.095Z,24.8
2019-03-12T05:21:11.331Z,24.8
2019-03-12T05:22:01.665Z,24.7
2019-03-12T05:22:52.158Z,24.7
2019-03-12T05:23:42.037Z,24.7
2019-03-12T05:24:32.097Z,24.6
2019-03-12T05:25:22.182Z,24.6
2019-03-12T05:26:11.714Z,24.6
2019-03-12T05:27:02.842Z,24.5
2019-03-12T05:27:51.358Z,24.5
2019-03-12T05:28:42.420Z,24.4
2019-03-12T05:29:31.901Z,24.4
2019-03-12T05:30:23.121Z,24.4
2019-03-12T05:31:13.159Z,24.3
2019-03-12T05:32:02.719Z,24.3
2019-03-12T05:32:53.181Z,24.4
2019-03-12T05:33:42.481Z,24.6
2019-03-12T05:34:32.599Z,24.6
2019-03-12T05:35:22.937Z,24.8
2019-03-12T05:36:13.249Z,24.8
2019-03-12T05:37:02.787Z,24.9
2019-03-12T05:37:53.124Z,24.9
2019-03-12T05:38:43.494Z,25
2019-03-12T05:39:33.517Z,25.1
2019-03-12T05:40:21.673Z,25.2
2019-03-12T05:41:16.339Z,25.3
2019-03-12T05:42:03.416Z,25.4
2019-03-12T05:42:53.136Z,25.5
2019-03-12T05:43:43.181Z,25.6
2019-03-12T05:44:33.563Z,25.8
2019-03-12T05:45:23.709Z,25.8
2019-03-12T05:46:14.298Z,25.9
2019-03-12T05:47:04.005Z,26
2019-03-12T05:47:53.765Z,26.1
2019-03-12T05:48:44.176Z,26.2
2019-03-12T05:49:33.636Z,26.3
2019-03-12T05:50:23.616Z,26.3
2019-03-12T05:51:14.016Z,26.4
2019-03-12T05:52:03.378Z,26.3
2019-03-12T05:52:55.915Z,26.3
2019-03-12T05:53:44.753Z,26.3
2019-03-12T05:54:34.030Z,26.1
2019-03-12T05:55:24.730Z,26
2019-03-12T05:56:14.347Z,25.9
2019-03-12T05:57:04.472Z,25.8
2019-03-12T05:57:55.017Z,25.7
2019-03-12T05:58:44.276Z,25.6
2019-03-12T05:59:34.497Z,25.5
2019-03-12T06:00:24.439Z,25.4
2019-03-12T06:01:14.463Z,25.3
2019-03-12T06:02:04.560Z,25.2
2019-03-12T06:02:54.617Z,25.1
2019-03-12T06:05:41.373Z,24.9
2019-03-12T06:06:31.890Z,24.9
2019-03-12T06:07:22.055Z,24.8
2019-03-12T06:08:12.616Z,24.8
2019-03-12T06:09:02.430Z,24.8
2019-03-12T06:09:52.372Z,24.8
2019-03-12T06:10:42.440Z,24.8
2019-03-12T06:11:31.990Z,24.7
2019-03-12T06:12:22.817Z,24.6
2019-03-12T06:13:12.965Z,24.6
2019-03-12T06:14:02.739Z,24.5
2019-03-12T06:14:52.731Z,24.5
2019-03-12T06:15:42.315Z,24.4
2019-03-12T06:16:32.295Z,24.4
2019-03-12T06:17:23.552Z,24.3
2019-03-12T06:18:13.049Z,24.3
2019-03-12T06:19:03.117Z,24.5
2019-03-12T06:19:52.525Z,24.6
2019-03-12T06:20:42.886Z,24.7
2019-03-12T06:21:32.934Z,24.8
2019-03-12T06:22:23.309Z,24.8
2019-03-12T06:23:15.653Z,24.9
2019-03-12T06:24:03.980Z,24.9
2019-03-12T06:24:53.729Z,25
2019-03-12T06:25:43.006Z,25.1
2019-03-12T06:26:32.994Z,25.2
2019-03-12T06:27:24.731Z,25.3
2019-03-12T06:28:13.658Z,25.4
2019-03-12T06:29:03.199Z,25.4
2019-03-12T06:29:53.546Z,25.4
2019-03-12T06:30:43.853Z,25.5
2019-03-12T06:31:33.901Z,25.5
2019-03-12T06:32:23.593Z,25.5
2019-03-12T06:33:13.573Z,25.5
2019-03-12T06:34:03.636Z,25.4
2019-03-12T06:34:54.261Z,25.4
2019-03-12T06:35:43.201Z,25.4
2019-03-12T06:36:34.081Z,25.3
2019-03-12T06:37:23.583Z,25.3
2019-03-12T06:38:13.686Z,25.3
2019-03-12T06:39:03.982Z,25.2
2019-03-12T06:39:54.357Z,25.2
2019-03-12T06:40:44.111Z,25.2
2019-03-12T06:41:34.365Z,25.3
2019-03-12T06:42:25.088Z,25.3
2019-03-12T06:43:15.055Z,25.4
2019-03-12T06:44:05.210Z,25.5
2019-03-12T06:44:54.929Z,25.6
2019-03-12T06:45:45.510Z,25.7
2019-03-12T06:46:34.535Z,25.8
2019-03-12T06:47:24.030Z,25.9
2019-03-12T06:48:14.597Z,25.9
2019-03-12T06:49:04.985Z,26
2019-03-12T06:49:55.047Z,26.1
2019-03-12T06:50:45.115Z,26.2
2019-03-12T06:51:33.802Z,26.3
2019-03-12T06:52:24.961Z,26.3
2019-03-12T06:53:14.744Z,26.3
2019-03-12T06:54:05.827Z,26.2
2019-03-12T06:54:55.894Z,26.1
2019-03-12T06:55:47.647Z,25.9
2019-03-12T06:56:35.377Z,25.9
2019-03-12T06:57:24.759Z,25.8
2019-03-12T06:58:15.895Z,25.7
2019-03-12T06:59:05.257Z,25.6
2019-03-12T06:59:55.464Z,25.5
2019-03-12T07:00:45.279Z,25.4
2019-03-12T07:01:35.681Z,25.3
2019-03-12T07:02:26.782Z,25.3
2019-03-12T07:03:16.535Z,25.2
2019-03-12T07:05:41.237Z,25
2019-03-12T07:06:31.831Z,24.9
2019-03-12T07:07:24.861Z,24.9
2019-03-12T07:08:13.439Z,24.9
2019-03-12T07:09:02.675Z,24.8
2019-03-12T07:09:52.787Z,24.8
2019-03-12T07:10:42.083Z,24.8
2019-03-12T07:11:32.166Z,24.7
2019-03-12T07:12:22.771Z,24.6
2019-03-12T07:13:12.901Z,24.6
2019-03-12T07:14:03.166Z,24.5
2019-03-12T07:14:52.689Z,24.5
2019-03-12T07:15:42.853Z,24.4
2019-03-12T07:16:32.781Z,24.4
2019-03-12T07:17:22.889Z,24.4
2019-03-12T07:18:12.651Z,24.3
2019-03-12T07:19:02.956Z,24.3
2019-03-12T07:19:53.563Z,24.2
2019-03-12T07:20:43.370Z,24.2
2019-03-12T07:21:33.440Z,24.3
2019-03-12T07:22:23.202Z,24.3
2019-03-12T07:23:13.593Z,24.3
2019-03-12T07:24:03.600Z,24.3
2019-03-12T07:25:07.570Z,24.2
2019-03-12T07:25:43.710Z,24.1
2019-03-12T07:26:33.033Z,24.1
2019-03-12T07:27:23.320Z,24.1
2019-03-12T07:28:12.601Z,24
2019-03-12T07:29:03.545Z,24
2019-03-12T07:29:53.706Z,23.9
2019-03-12T07:30:43.839Z,23.9
2019-03-12T07:31:34.842Z,24
2019-03-12T07:32:23.897Z,24
2019-03-12T07:33:13.833Z,24
2019-03-12T07:34:04.057Z,23.9
2019-03-12T07:34:54.356Z,23.9
2019-03-12T07:35:44.173Z,23.9
2019-03-12T07:36:34.215Z,23.9
2019-03-12T07:37:24.267Z,23.9
2019-03-12T07:38:14.603Z,23.8
2019-03-12T07:39:04.628Z,23.8
2019-03-12T07:39:53.430Z,23.8
2019-03-12T07:40:43.719Z,23.7
2019-03-12T07:41:40.322Z,23.8
2019-03-12T07:42:23.805Z,24
2019-03-12T07:43:14.222Z,24.1
2019-03-12T07:44:04.515Z,24.2
2019-03-12T07:44:55.102Z,24.3
2019-03-12T07:45:48.042Z,24.3
2019-03-12T07:46:35.353Z,24.4
2019-03-12T07:47:42.632Z,24.4
2019-03-12T07:48:29.779Z,24.5
2019-03-12T07:49:04.924Z,24.5
2019-03-12T07:49:54.746Z,24.6
2019-03-12T07:50:44.833Z,24.7
2019-03-12T07:51:34.059Z,24.8
2019-03-12T07:52:24.889Z,25
2019-03-12T07:53:14.401Z,25.1
2019-03-12T07:54:07.628Z,25.2
2019-03-12T07:54:55.064Z,25.3
2019-03-12T07:55:45.692Z,25.3
2019-03-12T07:56:35.963Z,25.3
2019-03-12T07:57:25.761Z,25.3
2019-03-12T07:58:16.149Z,25.1
2019-03-12T07:59:09.492Z,25.1
2019-03-12T07:59:55.704Z,25
2019-03-12T08:00:46.221Z,24.9
2019-03-12T08:01:36.595Z,24.9
2019-03-12T08:02:24.958Z,24.8
2019-03-12T08:03:16.663Z,24.8
2019-03-12T08:04:06.538Z,24.8
2019-03-12T08:04:55.980Z,24.7
2019-03-12T08:05:46.601Z,24.6
2019-03-12T08:06:36.351Z,24.5
2019-03-12T08:07:25.700Z,24.5
2019-03-12T08:08:15.454Z,24.4
2019-03-12T08:09:06.662Z,24.3
2019-03-12T08:09:56.331Z,24.3
2019-03-12T08:10:46.991Z,24.3
2019-03-12T08:11:36.949Z,24.3
2019-03-12T08:12:27.381Z,24.2
2019-03-12T08:13:17.173Z,24.2
2019-03-12T08:14:06.173Z,24.2
2019-03-12T08:14:57.003Z,24.1
2019-03-12T08:15:46.387Z,24.1
2019-03-12T08:16:36.338Z,24.1
2019-03-12T08:17:26.408Z,24.1
2019-03-12T08:18:15.657Z,24
2019-03-12T08:19:06.815Z,23.9
2019-03-12T08:19:56.900Z,23.9
2019-03-12T08:20:47.003Z,23.9
2019-03-12T08:21:37.005Z,23.8
2019-03-12T08:22:27.034Z,23.8
2019-03-12T08:23:17.122Z,23.8
2019-03-12T08:24:07.466Z,23.8
2019-03-12T08:24:57.788Z,23.7
2019-03-12T08:25:51.477Z,23.8
2019-03-12T08:26:38.023Z,23.8
2019-03-12T08:27:30.453Z,23.8
2019-03-12T08:28:17.924Z,23.7
2019-03-12T08:29:08.012Z,23.7
2019-03-12T08:29:58.387Z,23.6
2019-03-12T08:30:47.942Z,23.6
2019-03-12T08:31:37.912Z,23.6
2019-03-12T08:32:31.095Z,23.6
2019-03-12T08:33:17.051Z,23.5
2019-03-12T08:34:08.352Z,23.4
2019-03-12T08:34:58.803Z,23.4
2019-03-12T08:35:48.587Z,23.4
2019-03-12T08:36:38.825Z,23.6
2019-03-12T08:37:29.000Z,23.6
2019-03-12T08:38:18.490Z,23.5
2019-03-12T08:39:09.269Z,23.6
2019-03-12T08:39:59.389Z,23.5
2019-03-12T08:41:03.778Z,23.4
2019-03-12T08:41:38.616Z,23.4
2019-03-12T08:42:28.995Z,23.4
2019-03-12T08:43:19.189Z,23.4
2019-03-12T08:44:09.438Z,23.3
2019-03-12T08:45:02.734Z,23.3
2019-03-12T08:45:56.182Z,23.4
2019-03-12T08:46:39.967Z,23.6
2019-03-12T08:47:28.877Z,23.7
2019-03-12T08:48:20.672Z,23.8
2019-03-12T08:49:09.929Z,23.8
2019-03-12T08:49:59.270Z,23.9
2019-03-12T08:50:49.672Z,23.9
2019-03-12T08:51:40.357Z,24
2019-03-12T08:52:29.872Z,24
2019-03-12T08:53:19.861Z,24.1
2019-03-12T08:54:09.889Z,24.1
2019-03-12T08:55:06.519Z,24.3
2019-03-12T08:55:50.599Z,24.4
2019-03-12T08:56:40.308Z,24.5
2019-03-12T08:57:30.729Z,24.6
2019-03-12T08:58:20.479Z,24.8
2019-03-12T08:59:09.707Z,24.9
2019-03-12T09:00:00.546Z,25
2019-03-12T09:00:49.333Z,25.1
2019-03-12T09:01:41.892Z,25
2019-03-12T09:02:29.955Z,24.9
2019-03-12T09:03:19.440Z,24.9
2019-03-12T09:04:10.650Z,24.8
2019-03-12T09:05:00.380Z,24.8
2019-03-12T09:05:50.142Z,24.7
2019-03-12T09:06:40.209Z,24.6
2019-03-12T09:07:29.175Z,24.6
2019-03-12T09:08:19.795Z,24.6
2019-03-12T09:09:10.400Z,24.5
2019-03-12T09:10:00.445Z,24.4
2019-03-12T09:10:50.789Z,24.3
2019-03-12T09:11:40.109Z,24.3
2019-03-12T09:12:30.913Z,24.2
2019-03-12T09:13:20.769Z,24.1
2019-03-12T09:14:09.987Z,24.1
2019-03-12T09:15:01.307Z,24
2019-03-12T09:15:50.989Z,24
2019-03-12T09:16:40.834Z,23.9
2019-03-12T09:17:30.939Z,23.9
2019-03-12T09:18:20.507Z,23.9
2019-03-12T09:19:11.304Z,23.9
2019-03-12T09:20:01.837Z,23.9
2019-03-12T09:20:51.446Z,23.8
2019-03-12T09:21:42.114Z,23.8
2019-03-12T09:22:32.391Z,23.8
2019-03-12T09:23:22.722Z,23.7
2019-03-12T09:24:12.215Z,23.7
2019-03-12T09:25:02.314Z,23.6
2019-03-12T09:25:52.093Z,23.6
2019-03-12T09:26:41.022Z,23.5
2019-03-12T09:27:32.418Z,23.5
2019-03-12T09:28:22.347Z,23.4
2019-03-12T09:29:12.526Z,23.4
2019-03-12T09:30:02.533Z,23.5
2019-03-12T09:30:51.623Z,23.5
2019-03-12T09:31:42.568Z,23.4
2019-03-12T09:32:32.541Z,23.4
2019-03-12T09:33:22.913Z,23.4
2019-03-12T09:34:12.919Z,23.4
2019-03-12T09:35:02.908Z,23.4
2019-03-12T09:35:51.945Z,23.3
2019-03-12T09:36:41.967Z,23.3
2019-03-12T09:37:32.663Z,23.3
2019-03-12T09:38:23.323Z,23.2
2019-03-12T09:39:12.748Z,23.2
2019-03-12T09:40:03.454Z,23.1
2019-03-12T09:40:52.578Z,23.3
2019-03-12T09:41:42.739Z,23.3
2019-03-12T09:42:33.311Z,23.3
2019-03-12T09:43:23.033Z,23.3
2019-03-12T09:44:13.683Z,23.2
2019-03-12T09:45:03.180Z,23.2
2019-03-12T09:45:53.807Z,23.1
2019-03-12T09:46:43.894Z,23.1
2019-03-12T09:47:33.026Z,23.1
2019-03-12T09:48:23.622Z,23.1
2019-03-12T09:49:13.287Z,23.1
2019-03-12T09:50:03.459Z,23.1
2019-03-12T09:50:53.610Z,23.3
2019-03-12T09:51:43.942Z,23.4
2019-03-12T09:52:34.007Z,23.5
2019-03-12T09:53:24.352Z,23.5
2019-03-12T09:54:13.602Z,23.6
2019-03-12T09:55:07.514Z,23.6
2019-03-12T09:55:55.069Z,23.7
2019-03-12T09:56:43.992Z,23.7
2019-03-12T09:57:34.490Z,23.8
2019-03-12T09:58:24.389Z,23.9
2019-03-12T09:59:14.470Z,24
2019-03-12T10:00:20.014Z,24.1
2019-03-12T10:00:54.272Z,24.3
2019-03-12T10:01:45.249Z,24.4
2019-03-12T10:02:34.484Z,24.5
2019-03-12T10:03:24.354Z,24.6
2019-03-12T10:04:14.944Z,24.7
2019-03-12T10:06:42.266Z,24.8
2019-03-12T10:07:31.957Z,24.8
2019-03-12T10:08:21.586Z,24.8
2019-03-12T10:09:11.389Z,24.7
2019-03-12T10:10:02.259Z,24.6
2019-03-12T10:10:51.469Z,24.5
2019-03-12T10:11:42.262Z,24.5
2019-03-12T10:12:32.888Z,24.4
2019-03-12T10:13:22.376Z,24.4
2019-03-12T10:14:11.124Z,24.3
2019-03-12T10:15:02.567Z,24.3
2019-03-12T10:15:52.539Z,24.1
2019-03-12T10:16:42.505Z,24.1
2019-03-12T10:17:33.258Z,24
2019-03-12T10:18:22.153Z,23.9
2019-03-12T10:19:13.433Z,23.9
2019-03-12T10:20:02.243Z,23.8
2019-03-12T10:20:53.273Z,23.8
2019-03-12T10:21:42.686Z,23.8
2019-03-12T10:22:32.448Z,23.8
2019-03-12T10:23:23.062Z,23.8
2019-03-12T10:24:13.116Z,23.7
2019-03-12T10:25:03.344Z,23.7
2019-03-12T10:25:52.698Z,23.6
2019-03-12T10:26:44.021Z,23.6
2019-03-12T10:27:32.958Z,23.6
2019-03-12T10:28:24.045Z,23.5
2019-03-12T10:29:13.762Z,23.5
2019-03-12T10:30:03.525Z,23.4
2019-03-12T10:30:53.412Z,23.4
2019-03-12T10:31:43.426Z,23.4
2019-03-12T10:32:34.302Z,23.3
2019-03-12T10:33:23.802Z,23.3
2019-03-12T10:34:14.137Z,23.3
2019-03-12T10:35:03.798Z,23.2
2019-03-12T10:35:55.358Z,23.3
2019-03-12T10:36:44.347Z,23.3
2019-03-12T10:37:33.829Z,23.3
2019-03-12T10:38:23.569Z,23.3
2019-03-12T10:39:14.209Z,23.2
2019-03-12T10:40:04.342Z,23.3
2019-03-12T10:40:54.693Z,23.2
2019-03-12T10:41:43.952Z,23.1
2019-03-12T10:42:33.704Z,23.1
2019-03-12T10:43:24.527Z,23.1
2019-03-12T10:44:14.309Z,23.1
2019-03-12T10:45:05.322Z,23
2019-03-12T10:45:54.687Z,23.1
2019-03-12T10:46:44.747Z,23.1
2019-03-12T10:47:34.804Z,23.1
2019-03-12T10:48:25.204Z,23.1
2019-03-12T10:49:14.466Z,23.1
2019-03-12T10:50:05.065Z,23
2019-03-12T10:50:55.338Z,23
2019-03-12T10:51:44.921Z,23
2019-03-12T10:52:34.611Z,22.9
2019-03-12T10:53:25.264Z,22.9
2019-03-12T10:54:14.561Z,22.9
2019-03-12T10:55:20.931Z,23
2019-03-12T10:55:55.391Z,23.2
2019-03-12T10:56:45.784Z,23.3
2019-03-12T10:57:35.000Z,23.3
2019-03-12T10:58:26.238Z,23.3
2019-03-12T10:59:15.421Z,23.4
2019-03-12T11:00:05.421Z,23.4
2019-03-12T11:00:55.648Z,23.4
2019-03-12T11:01:46.111Z,23.5
2019-03-12T11:02:35.573Z,23.6
2019-03-12T11:03:25.962Z,23.7
2019-03-12T11:04:16.666Z,23.8
2019-03-12T11:05:05.941Z,23.8
2019-03-12T11:05:55.289Z,23.9
2019-03-12T11:06:45.422Z,23.9
2019-03-12T11:07:36.301Z,23.9
2019-03-12T11:08:25.541Z,23.9
2019-03-12T11:09:16.663Z,23.9
2019-03-12T11:10:06.470Z,24
2019-03-12T11:10:54.970Z,23.9
2019-03-12T11:11:46.461Z,24
2019-03-12T11:12:36.722Z,24
2019-03-12T11:13:26.412Z,23.9
2019-03-12T11:14:15.958Z,23.9
2019-03-12T11:15:07.021Z,23.9
2019-03-12T11:15:57.173Z,23.9
2019-03-12T11:16:46.653Z,24
2019-03-12T11:17:51.413Z,24.1